Time;durP1;ratioP1;P1;durP2;ratioP2;P2;SDS_P1;SDS_P2;PMS_P1;PMS_P2;Temp;Humidity;BMP_temperature;BMP_pressure;BME280_temperature;BME280_humidity;BME280_pressure;Samples;Min_cycle;Max_cycle;Signal;HPM_P1;HPM_P2
2021/12/20 00:01:10;;;;;;;8.00;5.93;;;;;;;20.54;28.17;99884.91;5116552;28;20036;-64
2021/12/20 00:03:36;;;;;;;7.47;5.35;;;;;;;20.54;28.27;99879.34;5116438;28;20031;-64
2021/12/20 00:06:01;;;;;;;7.22;5.38;;;;;;;20.57;28.25;99884.19;5116760;28;20082;-64
2021/12/20 00:08:28;;;;;;;7.75;5.85;;;;;;;20.54;28.21;99891.28;5116426;28;20063;-64
2021/12/20 00:10:54;;;;;;;7.05;5.35;;;;;;;20.54;28.23;99884.91;5116323;28;20040;-64
2021/12/20 00:13:20;;;;;;;7.32;5.47;;;;;;;20.53;28.28;99880.53;5116318;28;20445;-64
2021/12/20 00:15:45;;;;;;;7.50;5.32;;;;;;;20.54;28.11;99877.38;5116183;28;20056;-63
2021/12/20 00:18:11;;;;;;;6.63;5.10;;;;;;;20.55;28.27;99875.41;5116392;28;20075;-64
2021/12/20 00:20:37;;;;;;;6.63;5.15;;;;;;;20.55;28.20;99875.41;5116255;28;20050;-64
2021/12/20 00:23:04;;;;;;;7.10;5.55;;;;;;;20.54;28.09;99868.25;5116344;28;20036;-64
2021/12/20 00:25:30;;;;;;;7.28;5.05;;;;;;;20.55;28.17;99873.44;5116375;28;20051;-64
2021/12/20 00:27:55;;;;;;;7.30;5.65;;;;;;;20.54;28.28;99866.25;5116239;28;20097;-63
2021/12/20 00:30:22;;;;;;;7.25;5.63;;;;;;;20.55;28.09;99875.41;5116208;28;20112;-64
2021/12/20 00:32:47;;;;;;;6.63;5.13;;;;;;;20.54;28.28;99869.03;5116049;28;20044;-64
2021/12/20 00:35:13;;;;;;;7.25;5.45;;;;;;;20.51;28.31;99863.41;5116147;28;20047;-64
2021/12/20 00:40:23;;;;;;;7.50;5.47;;;;;;;21.11;27.57;99866.72;5116149;28;20108;-64
2021/12/20 00:42:52;;;;;;;6.88;5.50;;;;;;;21.40;26.92;99860.56;5115893;28;20043;-64
2021/12/20 00:45:20;;;;;;;7.57;5.50;;;;;;;21.36;26.98;99854.16;5115793;28;20486;-64
2021/12/20 00:47:46;;;;;;;7.25;5.32;;;;;;;21.24;27.15;99856.25;5115622;28;20035;-64
2021/12/20 00:50:14;;;;;;;7.20;5.35;;;;;;;21.34;27.42;99848.13;5115797;28;20423;-64
2021/12/20 00:52:42;;;;;;;6.70;4.88;;;;;;;22.01;26.38;99850.53;5115695;28;20564;-64
2021/12/20 00:55:08;;;;;;;6.45;5.40;;;;;;;22.01;26.35;99850.53;5114257;28;20036;-66
2021/12/20 00:57:33;;;;;;;6.95;5.43;;;;;;;21.82;26.70;99843.06;5115504;28;20460;-63
2021/12/20 00:59:59;;;;;;;7.13;5.50;;;;;;;21.60;26.77;99841.88;5114115;28;20516;-63
2021/12/20 01:02:25;;;;;;;7.20;5.50;;;;;;;21.42;27.20;99841.53;5112190;28;20056;-63
2021/12/20 01:04:50;;;;;;;7.15;5.60;;;;;;;21.23;27.18;99830.41;5112389;28;20044;-63
2021/12/20 01:07:16;;;;;;;7.75;5.82;;;;;;;21.13;27.38;99830.97;5112305;28;20042;-64
2021/12/20 01:09:41;;;;;;;7.63;6.03;;;;;;;21.02;27.48;99839.13;5111345;28;20564;-64
2021/12/20 01:12:14;;;;;;;6.68;5.50;;;;;;;20.94;27.66;99836.56;5111857;28;20520;-62
2021/12/20 01:14:40;;;;;;;;;;;;;;;20.87;27.59;99838.03;5112478;28;20044;-63
2021/12/20 01:17:05;;;;;;;7.95;5.80;;;;;;;20.81;27.72;99836.69;5112180;28;19916;-63
2021/12/20 01:19:35;;;;;;;7.95;5.80;;;;;;;20.74;27.79;99832.97;5112308;28;20048;-64
2021/12/20 01:22:02;;;;;;;7.22;5.63;;;;;;;20.72;27.84;99836.09;5112113;28;20051;-63
2021/12/20 01:24:28;;;;;;;7.32;5.78;;;;;;;20.71;27.84;99839.22;5111951;28;20039;-63
2021/12/20 01:26:53;;;;;;;6.70;5.22;;;;;;;20.66;28.06;99833.97;5112017;28;20055;-63
2021/12/20 01:29:19;;;;;;;6.43;5.18;;;;;;;20.65;27.86;99832.38;5112196;28;20035;-64
2021/12/20 01:31:45;;;;;;;7.22;5.60;;;;;;;20.65;28.03;99829.59;5112156;28;20062;-64
2021/12/20 01:34:10;;;;;;;6.45;5.07;;;;;;;20.61;27.93;99823.94;5111861;28;20050;-63
2021/12/20 01:36:36;;;;;;;7.07;5.47;;;;;;;20.61;28.11;99818.38;5111832;28;20048;-64
2021/12/20 01:39:01;;;;;;;7.20;5.28;;;;;;;20.59;28.16;99821.53;5111984;28;20089;-63
2021/12/20 01:41:27;;;;;;;7.85;5.90;;;;;;;20.58;28.08;99827.44;5111864;28;20058;-64
2021/12/20 01:43:54;;;;;;;6.43;5.20;;;;;;;20.58;28.16;99825.47;5111705;28;20100;-64
2021/12/20 01:46:20;;;;;;;7.25;5.28;;;;;;;20.59;27.99;99837.41;5111484;28;20442;-63
2021/12/20 01:48:46;;;;;;;6.50;5.00;;;;;;;20.56;27.81;99830.56;5111532;28;20054;-63
2021/12/20 01:51:31;;;;;;;6.40;5.22;;;;;;;20.57;27.99;99823.03;5111744;28;20495;-64
2021/12/20 01:53:57;;;;;;;7.30;5.22;;;;;;;20.57;27.95;99826.66;5111735;28;20090;-64
2021/12/20 01:56:23;;;;;;;6.93;5.43;;;;;;;20.57;27.95;99836.94;5111466;28;20317;-64
2021/12/20 01:58:48;;;;;;;6.88;5.53;;;;;;;20.57;28.10;99831.38;5111536;28;20236;-64
2021/12/20 02:03:44;;;;;;;6.50;4.80;;;;;;;20.57;28.02;99831.38;5111608;28;20044;-64
2021/12/20 02:06:46;;;;;;;6.93;5.60;;;;;;;20.57;27.81;99834.16;5111440;28;20039;-64
2021/12/20 02:09:06;;;;;;;6.68;5.43;;;;;;;20.57;28.10;99834.16;5093468;28;20035;-64
2021/12/20 02:11:31;;;;;;;6.28;4.90;;;;;;;20.56;28.13;99838.09;5090744;28;20424;-64
2021/12/20 02:13:57;;;;;;;6.75;5.15;;;;;;;20.56;27.98;99833.34;5091072;28;20519;-65
2021/12/20 02:16:23;;;;;;;6.85;5.35;;;;;;;20.56;28.00;99830.56;5090890;28;20135;-64
2021/12/20 02:18:49;;;;;;;6.45;5.43;;;;;;;20.52;27.87;99826.13;5090807;28;20087;-64
2021/12/20 02:21:14;;;;;;;6.90;5.28;;;;;;;20.53;27.91;99817.41;5090754;28;20389;-65
2021/12/20 02:23:40;;;;;;;7.68;6.22;;;;;;;20.54;28.01;99823.78;5090701;28;20048;-64
2021/12/20 02:26:06;;;;;;;6.97;5.60;;;;;;;20.53;27.87;99813.84;5090744;28;20044;-62
2021/12/20 02:28:38;;;;;;;7.20;5.53;;;;;;;20.53;27.96;99813.84;5090565;28;20047;-64
2021/12/20 02:39:19;;;;;;;8.52;6.15;;;;;;;20.51;28.05;99805.06;5090521;28;20532;-63
2021/12/20 02:41:45;;;;;;;7.20;5.25;;;;;;;20.48;28.00;99808.56;5090686;28;20032;-64
2021/12/20 02:44:17;;;;;;;7.43;5.43;;;;;;;20.51;27.99;99808.66;5090600;28;20051;-64
2021/12/20 02:46:51;;;;;;;6.95;5.18;;;;;;;20.52;28.04;99817.78;5090566;28;20070;-64
2021/12/20 02:49:24;;;;;;;7.45;5.30;;;;;;;20.49;28.17;99815.72;5090455;28;20048;-56
2021/12/20 02:51:59;;;;;;;6.93;5.38;;;;;;;20.52;28.12;99815.00;5090293;28;20036;-56
2021/12/20 02:54:24;;;;;;;6.88;5.68;;;;;;;20.53;28.06;99816.63;5072414;28;20093;-56
2021/12/20 02:56:50;;;;;;;8.30;6.00;;;;;;;20.52;27.96;99812.22;5090022;28;20055;-56
2021/12/20 02:59:17;;;;;;;6.75;5.30;;;;;;;20.49;28.14;99810.97;5090308;28;20483;-56
2021/12/20 03:01:52;;;;;;;7.57;5.97;;;;;;;20.50;28.07;99807.03;5090028;28;20478;-56
2021/12/20 03:04:18;;;;;;;7.32;5.30;;;;;;;20.53;28.00;99811.06;5090105;28;20044;-56
2021/12/20 03:06:54;;;;;;;6.40;4.80;;;;;;;20.53;27.95;99811.06;5089965;28;20066;-56
2021/12/20 03:09:22;;;;;;;7.38;5.45;;;;;;;20.51;27.99;99808.66;5089938;28;20040;-57
2021/12/20 03:11:51;;;;;;;6.45;5.07;;;;;;;20.51;27.89;99802.28;5055510;28;20056;-57
2021/12/20 03:14:26;;;;;;;7.68;5.82;;;;;;;20.51;28.10;99802.28;5090270;28;20130;-57
2021/12/20 03:16:52;;;;;;;6.78;5.38;;;;;;;20.48;28.05;99801.03;5089888;28;20055;-56
2021/12/20 03:19:17;;;;;;;7.22;5.10;;;;;;;20.46;27.95;99795.03;5089959;28;20036;-64
2021/12/20 03:21:43;;;;;;;7.45;5.35;;;;;;;20.50;28.00;99800.66;5089841;28;20050;-57
2021/12/20 03:24:08;;;;;;;6.78;5.30;;;;;;;20.51;27.90;99805.06;5089203;28;20571;-56
2021/12/20 03:26:35;;;;;;;7.57;5.75;;;;;;;20.50;27.88;99797.88;5089861;28;20044;-64
2021/12/20 03:29:01;;;;;;;7.43;5.88;;;;;;;20.51;27.94;99802.28;5089836;28;20043;-64
2021/12/20 03:31:26;;;;;;;7.05;5.13;;;;;;;20.52;27.75;99801.91;5089729;28;20059;-64
2021/12/20 03:33:52;;;;;;;6.30;4.80;;;;;;;20.50;27.76;99793.16;5089873;28;20044;-56
2021/12/20 03:36:18;;;;;;;7.53;5.47;;;;;;;20.51;27.69;99796.72;5089494;28;20048;-56
2021/12/20 03:38:43;;;;;;;7.28;5.72;;;;;;;20.50;27.86;99789.53;5089611;28;20496;-56
2021/12/20 03:41:09;;;;;;;7.60;5.53;;;;;;;20.51;27.93;99786.41;5089712;28;20036;-56
2021/12/20 03:43:35;;;;;;;7.15;5.30;;;;;;;20.49;28.02;99783.16;5089614;28;20041;-56
2021/12/20 03:46:05;;;;;;;6.28;4.88;;;;;;;20.51;27.73;99782.84;5089192;28;20056;-57
2021/12/20 03:48:32;;;;;;;6.95;5.45;;;;;;;20.52;27.87;99787.22;5089676;28;20051;-57
2021/12/20 03:51:01;;;;;;;6.85;5.18;;;;;;;20.51;27.87;99780.84;5089401;28;20093;-57
2021/12/20 03:53:27;;;;;;;6.40;5.03;;;;;;;20.51;27.85;99777.28;5089049;28;20050;-57
2021/12/20 03:55:53;;;;;;;6.88;5.20;;;;;;;20.52;27.69;99765.78;5089174;28;20071;-56
2021/12/20 03:58:18;;;;;;;7.45;5.53;;;;;;;20.49;27.74;99772.06;5089174;28;20075;-56
2021/12/20 04:00:44;;;;;;;7.75;5.55;;;;;;;20.52;27.88;99762.22;5089336;28;20040;-56
2021/12/20 04:03:13;;;;;;;6.22;5.00;;;;;;;20.51;27.66;99761.41;5089272;28;20048;-57
2021/12/20 04:05:39;;;;;;;7.20;5.50;;;;;;;20.51;27.92;99757.81;5089248;28;20097;-56
2021/12/20 04:08:05;;;;;;;7.22;5.43;;;;;;;20.50;27.88;99759.81;5089100;28;20075;-56
2021/12/20 04:10:30;;;;;;;6.40;4.85;;;;;;;20.51;27.73;99760.59;5088873;28;20039;-56
2021/12/20 04:12:56;;;;;;;6.55;5.22;;;;;;;20.53;27.75;99758.25;5089070;28;20075;-57
2021/12/20 04:15:21;;;;;;;6.53;5.32;;;;;;;20.52;27.66;99756.66;5089142;28;20131;-56
2021/12/20 04:17:47;;;;;;;7.25;5.20;;;;;;;20.53;27.88;99761.84;5089049;28;20043;-56
2021/12/20 04:20:12;;;;;;;7.65;5.57;;;;;;;20.51;27.78;99753.06;5089112;28;20040;-56
2021/12/20 04:22:38;;;;;;;6.30;5.13;;;;;;;20.54;27.87;99759.84;5089082;28;20454;-56
2021/12/20 04:25:04;;;;;;;6.88;5.15;;;;;;;20.53;27.63;99758.25;5089009;28;20091;-56
2021/12/20 04:27:30;;;;;;;6.93;5.32;;;;;;;20.54;27.69;99748.75;5088817;28;20047;-56
2021/12/20 04:29:56;;;;;;;7.32;5.88;;;;;;;20.53;27.67;99761.84;5089000;28;20040;-56
2021/12/20 04:32:22;;;;;;;7.60;5.43;;;;;;;20.54;27.70;99759.84;5089049;28;20044;-56
2021/12/20 04:34:48;;;;;;;6.30;5.00;;;;;;;20.53;27.87;99764.63;5089174;28;20083;-56
2021/12/20 04:37:15;;;;;;;6.38;5.00;;;;;;;20.53;27.79;99761.84;5092193;28;20094;-57
2021/12/20 04:39:41;;;;;;;7.75;5.70;;;;;;;20.53;27.71;99763.81;5092764;28;20071;-57
2021/12/20 04:42:08;;;;;;;6.93;5.20;;;;;;;20.50;27.78;99762.56;5092397;28;20075;-57
2021/12/20 04:44:34;;;;;;;5.93;4.60;;;;;;;20.54;27.72;99765.41;5092375;28;20054;-57
2021/12/20 04:46:59;;;;;;;7.20;5.45;;;;;;;20.54;27.66;99757.09;5092360;28;20067;-57
2021/12/20 04:49:25;;;;;;;6.60;5.15;;;;;;;20.52;27.85;99756.66;5092206;28;20492;-57
2021/12/20 04:51:54;;;;;;;7.07;5.45;;;;;;;20.52;27.72;99765.78;5092185;28;20082;-57
2021/12/20 04:54:21;;;;;;;7.07;5.68;;;;;;;20.55;27.68;99770.59;5092010;28;20048;-57
2021/12/20 04:56:47;;;;;;;6.25;5.25;;;;;;;20.56;27.57;99776.97;5091866;28;20052;-57
2021/12/20 04:59:12;;;;;;;6.03;5.00;;;;;;;20.54;27.99;99765.41;5092163;28;20115;-57
2021/12/20 05:01:38;;;;;;;7.25;5.13;;;;;;;20.54;27.84;99768.19;5092290;28;20147;-64
2021/12/20 05:04:03;;;;;;;6.10;4.72;;;;;;;20.54;27.77;99765.41;5092145;28;20158;-64
2021/12/20 05:06:32;;;;;;;7.75;5.57;;;;;;;20.55;28.01;99767.03;5092023;28;20044;-64
2021/12/20 05:08:57;;;;;;;7.22;4.95;;;;;;;20.54;28.11;99769.00;5091696;28;20052;-64
2021/12/20 05:11:23;;;;;;;6.43;4.53;;;;;;;20.54;28.23;99762.63;5091694;28;20051;-64
2021/12/20 05:13:49;;;;;;;6.13;5.05;;;;;;;20.54;28.14;99757.09;5091669;28;20055;-64
2021/12/20 05:16:15;;;;;;;6.13;4.70;;;;;;;20.54;28.12;99759.84;5091585;28;20044;-64
2021/12/20 05:18:40;;;;;;;6.25;4.75;;;;;;;20.53;28.25;99756.28;5091666;28;20052;-64
2021/12/20 05:21:06;;;;;;;6.90;5.22;;;;;;;20.55;28.17;99764.25;5091646;28;20044;-63
2021/12/20 05:23:31;;;;;;;6.43;5.15;;;;;;;20.52;28.04;99763.00;5091763;28;20059;-57
2021/12/20 05:25:56;;;;;;;6.55;4.60;;;;;;;20.52;28.17;99763.00;5091563;28;20052;-57
2021/12/20 05:28:23;;;;;;;6.38;4.75;;;;;;;20.53;28.17;99758.25;5091282;28;20051;-57
2021/12/20 05:30:52;;;;;;;6.20;4.88;;;;;;;20.52;28.21;99754.69;5091632;28;20089;-57
2021/12/20 05:33:17;;;;;;;5.88;4.70;;;;;;;20.52;28.07;99756.66;5108157;28;20130;-57
2021/12/20 05:35:43;;;;;;;5.55;4.30;;;;;;;20.51;28.10;99755.03;5132360;27;20142;-63
2021/12/20 05:38:08;;;;;;;6.38;4.78;;;;;;;20.51;28.07;99758.63;5132557;28;20050;-64
2021/12/20 05:40:35;;;;;;;6.20;4.88;;;;;;;20.53;28.28;99763.81;5132309;28;20069;-64
2021/12/20 05:43:01;;;;;;;6.70;4.90;;;;;;;20.51;28.23;99764.19;5132319;27;20039;-64
2021/12/20 05:45:27;;;;;;;5.80;4.63;;;;;;;20.53;28.12;99770.16;5132385;27;20071;-64
2021/12/20 05:47:52;;;;;;;6.47;4.75;;;;;;;20.52;28.07;99765.00;5131639;27;20066;-63
2021/12/20 05:50:20;;;;;;;5.80;4.50;;;;;;;20.52;28.14;99770.53;5132087;27;20055;-56
2021/12/20 05:52:46;;;;;;;6.53;5.07;;;;;;;20.53;28.27;99772.16;5132013;27;20122;-57
2021/12/20 05:55:13;;;;;;;5.40;4.45;;;;;;;20.52;28.22;99770.53;5132082;27;20039;-64
2021/12/20 05:57:38;;;;;;;6.63;4.85;;;;;;;20.53;28.23;99783.25;5132165;27;20051;-64
2021/12/20 06:00:08;;;;;;;6.03;4.40;;;;;;;20.52;28.30;99782.47;5132332;27;20057;-64
2021/12/20 06:02:34;;;;;;;5.15;4.15;;;;;;;20.52;28.22;99784.44;5132043;27;20463;-64
2021/12/20 06:04:59;;;;;;;6.25;4.75;;;;;;;20.51;28.20;99786.41;5131916;27;20550;-64
2021/12/20 06:07:25;;;;;;;6.30;4.97;;;;;;;20.50;28.38;99783.97;5131822;27;20054;-64
2021/12/20 06:09:50;;;;;;;6.00;4.72;;;;;;;20.53;28.32;99792.41;5131804;27;20051;-64
2021/12/20 06:12:16;;;;;;;7.18;5.13;;;;;;;20.55;28.37;99803.94;5131526;27;20038;-64
2021/12/20 06:14:42;;;;;;;6.25;4.97;;;;;;;20.57;28.26;99798.03;5131834;27;20122;-64
2021/12/20 06:17:08;;;;;;;5.57;4.30;;;;;;;20.57;28.30;99801.63;5131580;27;20043;-64
2021/12/20 06:19:33;;;;;;;6.50;4.70;;;;;;;20.56;28.34;99797.22;5131708;27;20043;-64
2021/12/20 06:21:59;;;;;;;7.03;5.28;;;;;;;20.58;28.36;99800.47;5131485;27;20050;-57
2021/12/20 06:24:25;;;;;;;6.28;4.88;;;;;;;20.58;28.19;99800.47;5131475;27;20031;-57
2021/12/20 06:26:51;;;;;;;5.78;4.47;;;;;;;20.59;28.26;99798.50;5131481;27;20035;-56
2021/12/20 06:29:17;;;;;;;6.03;4.85;;;;;;;20.60;28.24;99795.34;5131646;27;20103;-64
2021/12/20 06:31:43;;;;;;;6.95;4.88;;;;;;;20.56;28.12;99791.66;5131527;27;20470;-64
2021/12/20 06:34:09;;;;;;;6.60;5.43;;;;;;;20.58;28.12;99791.31;5130063;28;20043;-65
2021/12/20 06:36:35;;;;;;;6.13;4.85;;;;;;;20.61;28.08;99794.16;5131114;27;20111;-64
2021/12/20 06:39:00;;;;;;;6.18;4.60;;;;;;;20.60;28.17;99787.00;5131363;27;20054;-64
2021/12/20 06:41:26;;;;;;;5.60;4.18;;;;;;;20.60;28.11;99783.41;5131347;27;20404;-56
2021/12/20 06:43:51;;;;;;;6.55;5.03;;;;;;;20.58;28.21;99781.00;5131464;27;20043;-56
2021/12/20 06:46:18;;;;;;;5.40;4.32;;;;;;;20.60;28.34;99773.09;5131502;27;20042;-57
2021/12/20 06:48:44;;;;;;;6.32;4.80;;;;;;;20.60;28.16;99781.44;5131377;27;20039;-56
2021/12/20 06:51:10;;;;;;;20.35;5.43;;;;;;;20.61;28.54;99780.28;5131208;27;20118;-62
2021/12/20 06:53:35;;;;;;;13.63;4.93;;;;;;;20.63;28.32;99787.44;5131200;28;20138;-62
2021/12/20 06:56:00;;;;;;;6.60;4.65;;;;;;;20.61;28.39;99785.03;5131207;27;20045;-63
2021/12/20 06:58:26;;;;;;;9.90;4.70;;;;;;;20.63;28.44;99790.22;5129805;27;20035;-63
2021/12/20 07:00:52;;;;;;;7.60;4.65;;;;;;;20.59;28.57;99781.81;5130917;27;20043;-62
2021/12/20 07:03:19;;;;;;;9.75;5.30;;;;;;;20.63;28.47;99787.44;5131152;27;20092;-62
2021/12/20 07:05:45;;;;;;;6.80;4.97;;;;;;;20.63;28.47;99784.66;5131118;27;20127;-63
2021/12/20 07:08:10;;;;;;;6.85;4.72;;;;;;;20.60;28.37;99787.00;5130829;28;20122;-62
2021/12/20 07:10:36;;;;;;;7.78;4.50;;;;;;;20.60;28.28;99783.41;5130744;27;20039;-62
2021/12/20 07:13:01;;;;;;;6.28;4.57;;;;;;;20.60;28.49;99781.44;5130557;27;20039;-56
2021/12/20 07:15:27;;;;;;;6.90;5.00;;;;;;;20.63;28.39;99781.88;5130691;27;20051;-57
2021/12/20 07:17:53;;;;;;;7.22;4.68;;;;;;;20.64;28.16;99791.81;5130663;27;20057;-57
2021/12/20 07:20:18;;;;;;;7.47;4.55;;;;;;;20.63;28.25;99788.25;5130530;28;20050;-56
2021/12/20 07:22:44;;;;;;;6.65;4.30;;;;;;;20.63;28.22;99795.78;5130903;27;20134;-56
2021/12/20 07:25:10;;;;;;;6.90;5.00;;;;;;;20.61;28.32;99796.94;5128091;27;20130;-63
2021/12/20 07:27:35;;;;;;;8.25;4.80;;;;;;;20.63;28.42;99788.25;5122739;27;20426;-62
2021/12/20 07:30:03;;;;;;;6.25;4.53;;;;;;;20.65;28.26;99796.22;5127059;28;20533;-66
2021/12/20 07:32:29;;;;;;;7.88;4.82;;;;;;;20.64;28.16;99798.19;5121637;27;20047;-65
2021/12/20 07:34:55;;;;;;;6.70;5.13;;;;;;;20.69;28.14;99791.53;5126868;28;20096;-65
2021/12/20 07:37:22;;;;;;;6.75;4.90;;;;;;;20.74;28.12;99797.63;5101431;28;20043;-61
2021/12/20 07:39:47;;;;;;;8.68;5.25;;;;;;;20.78;27.71;99798.47;5129691;27;20422;-62
2021/12/20 07:42:12;;;;;;;7.03;5.18;;;;;;;20.80;27.59;99804.50;5129530;28;20039;-66
2021/12/20 07:44:38;;;;;;;9.85;5.20;;;;;;;20.83;27.55;99797.41;5126258;28;20035;-65
2021/12/20 07:47:04;;;;;;;8.30;5.53;;;;;;;20.84;27.56;99796.22;5123048;28;20035;-65
2021/12/20 07:49:29;;;;;;;7.53;5.53;;;;;;;20.85;27.52;99800.59;5117250;28;20042;-65
2021/12/20 07:51:55;;;;;;;7.60;5.15;;;;;;;20.88;27.68;99799.91;5124915;28;20047;-63
2021/12/20 07:54:20;;;;;;;8.77;5.32;;;;;;;20.86;27.45;99803.06;5119558;27;20044;-66
2021/12/20 07:56:46;;;;;;;8.75;5.60;;;;;;;20.87;27.43;99801.88;5119059;27;20043;-66
2021/12/20 07:59:11;;;;;;;7.60;5.50;;;;;;;20.89;27.63;99801.50;5126834;28;20118;-66
2021/12/20 08:01:37;;;;;;;9.35;6.00;;;;;;;20.91;27.57;99807.50;5130029;28;20047;-66
2021/12/20 08:04:03;;;;;;;9.05;5.35;;;;;;;20.88;27.30;99799.91;5129745;27;20130;-66
2021/12/20 08:06:29;;;;;;;7.97;5.60;;;;;;;20.90;27.39;99808.66;5126242;28;20035;-66
2021/12/20 08:08:54;;;;;;;9.63;5.00;;;;;;;20.91;27.36;99809.47;5127464;27;20039;-65
2021/12/20 08:11:20;;;;;;;11.52;5.38;;;;;;;20.87;27.62;99796.31;5128911;27;20043;-63
2021/12/20 08:13:45;;;;;;;10.35;5.30;;;;;;;20.91;27.60;99803.91;5125958;28;20041;-65
2021/12/20 08:16:16;;;;;;;9.30;5.13;;;;;;;20.89;27.51;99799.53;5126980;27;20498;-65
2021/12/20 08:18:43;;;;;;;9.80;5.53;;;;;;;20.92;27.68;99816.63;5127670;28;20130;-65
2021/12/20 08:21:09;;;;;;;10.70;6.45;;;;;;;20.89;27.52;99801.50;5119512;28;20035;-66
2021/12/20 08:23:36;;;;;;;10.13;6.25;;;;;;;20.91;27.54;99804.72;5122312;28;20495;-61
2021/12/20 08:26:02;;;;;;;10.27;5.68;;;;;;;20.90;27.83;99797.53;5124124;28;20039;-62
2021/12/20 08:28:27;;;;;;;11.23;6.18;;;;;;;20.88;27.85;99803.47;5125634;28;20392;-61
2021/12/20 08:30:53;;;;;;;12.15;6.25;;;;;;;20.86;27.62;99789.16;5124805;28;20046;-61
2021/12/20 08:33:19;;;;;;;14.82;6.78;;;;;;;20.88;27.72;99792.34;5130826;27;20039;-67
2021/12/20 08:35:49;;;;;;;13.13;6.88;;;;;;;20.89;27.67;99791.19;5125750;27;20043;-66
2021/12/20 08:38:15;;;;;;;9.52;6.25;;;;;;;20.96;27.57;99803.63;5129481;28;20070;-66
2021/12/20 08:40:41;;;;;;;21.55;6.30;;;;;;;20.99;27.31;99800.91;5130678;27;20074;-66
2021/12/20 08:43:06;;;;;;;15.88;6.00;;;;;;;21.04;27.37;99803.41;5130636;27;20078;-61
2021/12/20 08:45:31;;;;;;;18.67;6.80;;;;;;;21.07;27.61;99801.84;5131829;27;20062;-61
2021/12/20 08:47:57;;;;;;;15.38;6.22;;;;;;;21.07;27.52;99808.22;5126943;28;20052;-62
2021/12/20 08:50:23;;;;;;;17.13;6.63;;;;;;;21.04;27.54;99803.41;5130336;28;20051;-62
2021/12/20 08:52:49;;;;;;;13.35;6.13;;;;;;;21.06;27.50;99808.59;5129804;27;20039;-66
2021/12/20 08:55:15;;;;;;;15.40;6.32;;;;;;;21.05;27.46;99812.53;5130934;27;20714;-64
2021/12/20 08:57:41;;;;;;;18.67;6.30;;;;;;;21.02;27.32;99810.50;5122573;27;20502;-67
2021/12/20 09:00:11;;;;;;;15.32;6.13;;;;;;;21.02;27.60;99810.50;5131885;27;20035;-66
2021/12/20 09:02:37;;;;;;;12.63;5.60;;;;;;;21.00;27.56;99816.41;5141365;27;20054;-67
2021/12/20 09:05:04;;;;;;;9.48;5.80;;;;;;;21.00;27.54;99815.59;5127714;28;20035;-65
2021/12/20 09:07:30;;;;;;;11.32;5.90;;;;;;;21.02;27.42;99811.31;5128573;28;20084;-65
2021/12/20 09:09:55;;;;;;;9.98;5.60;;;;;;;21.00;27.35;99807.25;5130288;27;20434;-65
2021/12/20 09:12:21;;;;;;;9.23;6.13;;;;;;;20.99;27.54;99823.16;5127233;28;20031;-66
2021/12/20 09:14:47;;;;;;;9.32;5.82;;;;;;;20.98;27.55;99820.75;5129717;27;20534;-66
2021/12/20 09:17:13;;;;;;;9.10;5.72;;;;;;;20.96;27.47;99820.31;5130611;27;20089;-65
2021/12/20 09:19:39;;;;;;;11.02;4.90;;;;;;;20.96;27.28;99812.78;5132227;28;20039;-65
2021/12/20 09:22:06;;;;;;;8.63;5.85;;;;;;;20.99;27.16;99814.00;5130289;27;20039;-65
2021/12/20 09:24:33;;;;;;;10.35;5.20;;;;;;;20.98;27.27;99820.75;5130294;27;20415;-65
2021/12/20 09:26:59;;;;;;;8.95;6.10;;;;;;;20.97;27.21;99824.69;5129802;27;20039;-62
2021/12/20 09:29:24;;;;;;;7.75;5.30;;;;;;;20.99;27.41;99825.13;5129244;27;20417;-62
2021/12/20 09:31:49;;;;;;;7.97;5.53;;;;;;;20.99;27.32;99827.91;5131304;28;20052;-62
2021/12/20 09:34:15;;;;;;;9.27;4.90;;;;;;;20.97;27.23;99830.25;5130156;28;20528;-61
2021/12/20 09:36:40;;;;;;;7.38;5.50;;;;;;;20.99;27.29;99827.91;5129853;27;20051;-61
2021/12/20 09:39:10;;;;;;;8.93;5.90;;;;;;;21.00;27.46;99832.28;5129344;28;20035;-61
2021/12/20 09:44:11;;;;;;;8.20;5.47;;;;;;;20.99;27.30;99828.72;5111671;28;20104;-61
2021/12/20 09:46:38;;;;;;;7.50;5.60;;;;;;;21.01;27.57;99836.72;5130642;28;20039;-62
2021/12/20 09:49:06;;;;;;;8.43;5.93;;;;;;;20.99;27.46;99833.47;5112990;27;20047;-62
2021/12/20 09:51:32;;;;;;;7.45;5.75;;;;;;;20.97;27.23;99825.50;5123061;28;20058;-61
2021/12/20 09:53:58;;;;;;;7.80;5.78;;;;;;;20.97;27.37;99821.91;5128554;27;20495;-62
2021/12/20 09:56:28;;;;;;;8.20;5.55;;;;;;;20.99;27.24;99831.50;5128521;27;20035;-62
2021/12/20 09:58:57;;;;;;;7.63;5.30;;;;;;;20.99;27.45;99839.03;5130047;27;20043;-62
2021/12/20 10:01:24;;;;;;;7.70;5.70;;;;;;;20.98;27.27;99831.88;5130992;27;20071;-62
2021/12/20 10:03:50;;;;;;;7.72;5.18;;;;;;;20.97;27.40;99825.50;5129947;27;20050;-65
2021/12/20 10:06:16;;;;;;;8.00;5.28;;;;;;;20.97;27.39;99824.69;5130862;27;20530;-66
2021/12/20 10:08:53;;;;;;;7.30;5.47;;;;;;;20.97;27.26;99830.25;5114836;27;20047;-66
2021/12/20 10:11:26;;;;;;;7.40;5.45;;;;;;;20.95;27.55;99822.28;5118276;28;20074;-65
2021/12/20 10:14:12;;;;;;;8.90;5.60;;;;;;;20.95;27.63;99819.50;5121984;28;20040;-65
2021/12/20 10:16:41;;;;;;;7.60;5.38;;;;;;;20.97;27.36;99813.56;5126000;28;20054;-65
2021/12/20 10:19:28;;;;;;;7.90;5.47;;;;;;;21.02;27.69;99810.50;5127473;27;20166;-65
2021/12/20 10:21:55;;;;;;;6.88;4.95;;;;;;;21.08;27.38;99812.63;5121087;28;20053;-61
2021/12/20 10:24:38;;;;;;;8.65;5.40;;;;;;;21.16;27.45;99811.59;5111860;28;20043;-61
2021/12/20 10:27:03;;;;;;;;;;;;;;;21.21;27.40;99813.25;5123683;28;20071;-62
2021/12/20 10:29:29;;;;;;;8.50;5.32;;;;;;;21.22;27.65;99809.31;5117411;28;19961;-66
2021/12/20 10:31:55;;;;;;;6.50;5.07;;;;;;;21.27;27.61;99805.41;5122580;28;20070;-65
2021/12/20 10:34:32;;;;;;;7.47;5.47;;;;;;;21.28;27.33;99813.41;5128981;27;20437;-65
2021/12/20 10:36:59;;;;;;;6.78;4.97;;;;;;;21.29;27.17;99798.38;5128605;27;20573;-65
2021/12/20 10:39:34;;;;;;;7.82;5.45;;;;;;;21.35;27.12;99796.06;5129256;27;20074;-66
2021/12/20 10:42:13;;;;;;;7.43;5.22;;;;;;;21.36;27.35;99806.00;5125517;27;20082;-65
2021/12/20 10:44:38;;;;;;;7.03;5.00;;;;;;;21.32;27.28;99797.63;5129658;27;20153;-65
2021/12/20 10:47:04;;;;;;;7.32;5.55;;;;;;;21.28;27.26;99793.16;5129452;27;20185;-65
2021/12/20 10:49:30;;;;;;;7.55;5.43;;;;;;;21.24;27.54;99795.03;5128388;27;20060;-65
2021/12/20 10:51:57;;;;;;;7.20;5.28;;;;;;;21.19;27.21;99795.31;5130271;27;20051;-65
2021/12/20 10:54:29;;;;;;;31.75;10.65;;;;;;;21.11;27.48;99781.28;5129546;27;20054;-59
2021/12/20 10:57:03;;;;;;;44.40;12.07;;;;;;;21.11;27.46;99791.59;5124563;28;20086;-63
2021/12/20 10:59:37;;;;;;;48.90;13.65;;;;;;;21.09;27.85;99791.19;5127381;28;20043;-63
2021/12/20 11:04:59;;;;;;;45.53;13.85;;;;;;;21.07;28.01;99787.94;5126245;28;20055;-59
2021/12/20 11:10:08;;;;;;;38.70;13.18;;;;;;;21.04;28.17;99780.34;5130332;28;20062;-59
2021/12/20 11:12:34;;;;;;;39.72;12.77;;;;;;;21.05;28.15;99779.97;5129940;28;20493;-60
2021/12/20 11:15:10;;;;;;;41.88;12.15;;;;;;;21.04;28.10;99772.00;5128395;28;20027;-53
2021/12/20 11:17:40;;;;;;;28.20;10.88;;;;;;;21.05;28.02;99779.16;5128490;28;20073;-51
2021/12/20 11:20:06;;;;;;;32.28;10.55;;;;;;;21.02;28.42;99769.59;5128537;28;20034;-51
2021/12/20 11:22:33;;;;;;;29.08;10.52;;;;;;;21.02;28.49;99771.56;5127521;28;20041;-55
2021/12/20 11:25:06;;;;;;;28.30;9.95;;;;;;;21.03;28.24;99770.41;5128188;28;20043;-52
2021/12/20 11:27:35;;;;;;;21.63;8.88;;;;;;;20.99;28.24;99769.50;5128438;27;20039;-55
2021/12/20 11:30:07;;;;;;;21.38;8.73;;;;;;;21.00;28.10;99773.91;5128333;27;20384;-55
2021/12/20 11:32:33;;;;;;;20.85;8.55;;;;;;;21.02;28.37;99763.22;5128458;27;20471;-52
2021/12/20 11:34:58;;;;;;;18.65;7.55;;;;;;;21.11;28.25;99756.25;5127871;27;20212;-55
2021/12/20 11:37:26;;;;;;;15.05;6.95;;;;;;;21.22;28.29;99756.47;5128235;27;20035;-55
2021/12/20 11:39:53;;;;;;;16.02;6.63;;;;;;;21.30;27.99;99752.66;5129618;27;20114;-56
2021/12/20 11:42:20;;;;;;;12.85;6.97;;;;;;;21.36;28.05;99747.56;5128140;27;20049;-61
2021/12/20 11:44:46;;;;;;;12.57;6.80;;;;;;;21.40;28.03;99735.34;5127748;27;20096;-62
2021/12/20 11:47:30;;;;;;;14.82;6.15;;;;;;;21.36;28.52;99748.41;5128344;27;20067;-56
2021/12/20 11:50:05;;;;;;;10.13;5.82;;;;;;;21.28;28.67;99746.66;5127153;28;20590;-56
2021/12/20 11:52:52;;;;;;;9.52;5.63;;;;;;;21.17;29.25;99742.84;5128196;27;20035;-56